Aviation Digital Data Service (ADDS)

Output produced by METARs form (1442 UTC 21 April 2014)
found at http://aviationweather.gov/adds/metars/
 
KILM 211120Z 2112/2212 36012KT P6SM OVC015 
     FM211400 34012G18KT P6SM SCT035 SCT080 
     FM211700 36012KT P6SM FEW035 SCT060 
     FM212300 02008KT P6SM FEW025